Time;durP1;ratioP1;P1;durP2;ratioP2;P2;SDS_P1;SDS_P2;PMS_P1;PMS_P2;Temp;Humidity;BMP_temperature;BMP_pressure;BME280_temperature;BME280_humidity;BME280_pressure;Samples;Min_cycle;Max_cycle;Signal;HPM_P1;HPM_P2
2022/06/06 00:01:38;;;;;;;43.92;35.03;;;;;;;14.74;100.00;100414.81;5087226;28;20060;-77
2022/06/06 00:04:03;;;;;;;43.83;32.83;;;;;;;14.76;100.00;100415.56;5093720;28;20026;-77
2022/06/06 00:06:29;;;;;;;43.03;33.92;;;;;;;14.73;100.00;100406.06;5087379;28;20489;-76
2022/06/06 00:08:54;;;;;;;48.58;33.15;;;;;;;14.83;100.00;100419.50;5076400;28;20024;-72
2022/06/06 00:11:19;;;;;;;52.25;33.58;;;;;;;14.65;100.00;100394.28;5094755;28;20028;-74
2022/06/06 00:13:47;;;;;;;41.75;30.20;;;;;;;14.78;100.00;100417.16;5079362;28;20036;-73
2022/06/06 00:16:13;;;;;;;38.45;31.05;;;;;;;14.82;100.00;100429.22;5103476;28;20363;-74
2022/06/06 00:18:38;;;;;;;36.17;27.45;;;;;;;14.82;100.00;100417.78;5101491;28;20042;-73
2022/06/06 00:21:06;;;;;;;40.33;28.67;;;;;;;14.70;100.00;100402.75;5093945;28;20027;-73
2022/06/06 00:23:32;;;;;;;36.25;25.70;;;;;;;14.81;100.00;100411.66;5092857;28;20081;-74
2022/06/06 00:25:57;;;;;;;31.67;25.90;;;;;;;14.69;100.00;100396.63;5080252;28;20112;-74
2022/06/06 00:28:23;;;;;;;32.97;23.38;;;;;;;14.74;100.00;100402.44;5090875;28;20031;-75
2022/06/06 00:30:55;;;;;;;33.08;25.13;;;;;;;14.72;100.00;100396.41;5092774;28;20036;-75
2022/06/06 00:36:04;;;;;;;35.47;23.87;;;;;;;14.77;100.00;100401.38;5082613;28;20039;-77
2022/06/06 00:38:30;;;;;;;36.78;24.17;;;;;;;14.54;100.00;100359.75;5081129;28;20289;-75
2022/06/06 00:40:55;;;;;;;27.02;21.77;;;;;;;14.72;100.00;100393.78;5091751;28;20036;-77
2022/06/06 00:43:21;;;;;;;28.88;22.08;;;;;;;14.73;100.00;100407.84;5087216;28;20490;-74
2022/06/06 00:45:49;;;;;;;27.60;21.00;;;;;;;14.67;100.00;100405.59;5079312;28;20479;-75
2022/06/06 00:48:26;;;;;;;23.00;18.80;;;;;;;14.47;100.00;100380.47;5088708;28;20489;-75
2022/06/06 00:51:08;;;;;;;22.50;18.55;;;;;;;14.59;100.00;100410.56;5086038;28;20024;-76
2022/06/06 00:53:47;;;;;;;25.88;18.73;;;;;;;14.63;100.00;100417.34;5078449;28;20092;-75
2022/06/06 00:56:37;;;;;;;20.60;17.52;;;;;;;14.57;100.00;100413.28;5091690;28;20036;-74
2022/06/06 00:59:07;;;;;;;20.90;16.67;;;;;;;14.48;100.00;100400.69;5095122;27;20423;-75
2022/06/06 01:01:34;;;;;;;23.25;16.48;;;;;;;14.51;100.00;100416.34;5089443;28;20058;-73
2022/06/06 01:04:01;;;;;;;17.95;14.32;;;;;;;13.96;100.00;100326.56;5083569;28;20085;-72
2022/06/06 01:06:29;;;;;;;20.75;16.33;;;;;;;14.37;100.00;100400.53;5074929;28;20036;-74
2022/06/06 01:08:55;;;;;;;17.70;15.07;;;;;;;14.39;100.00;100409.22;5074871;28;20387;-74
2022/06/06 01:11:20;;;;;;;18.48;15.23;;;;;;;14.42;100.00;100418.75;5092789;28;20040;-74
2022/06/06 01:13:46;;;;;;;21.33;16.30;;;;;;;14.33;100.00;100409.56;5093767;28;20040;-76
2022/06/06 01:16:33;;;;;;;23.55;16.80;;;;;;;14.18;100.00;100390.31;5079613;28;20489;-74
2022/06/06 01:19:08;;;;;;;17.80;14.45;;;;;;;14.39;100.00;100424.25;5092973;28;20402;-75
2022/06/06 01:22:01;;;;;;;16.30;14.63;;;;;;;14.39;100.00;100419.81;5075466;28;20033;-74
2022/06/06 01:24:56;;;;;;;16.45;13.73;;;;;;;14.36;100.00;100421.81;5090670;28;20555;-77
2022/06/06 01:27:46;;;;;;;21.50;14.48;;;;;;;14.31;100.00;100428.19;5096122;28;20527;-74
2022/06/06 01:30:16;;;;;;;19.05;14.27;;;;;;;14.25;100.00;100418.03;5091905;28;20050;-73
2022/06/06 01:32:45;;;;;;;17.08;14.45;;;;;;;14.35;100.00;100435.97;5091065;28;20043;-73
2022/06/06 01:35:20;;;;;;;21.48;15.32;;;;;;;14.26;100.00;100419.72;5091721;28;20525;-75
2022/06/06 01:37:46;;;;;;;18.10;15.35;;;;;;;14.27;100.00;100420.56;5093619;28;20032;-75
2022/06/06 01:40:13;;;;;;;19.13;15.10;;;;;;;14.35;100.00;100430.66;5092860;28;20092;-74
2022/06/06 01:42:46;;;;;;;22.55;16.60;;;;;;;14.25;100.00;100402.19;5092590;28;20031;-75
2022/06/06 01:45:36;;;;;;;20.02;15.05;;;;;;;14.27;100.00;100415.28;5093225;28;20054;-74
2022/06/06 01:48:23;;;;;;;17.05;15.27;;;;;;;14.29;100.00;100411.59;5088843;28;20506;-75
2022/06/06 01:50:50;;;;;;;20.08;15.82;;;;;;;14.25;100.00;100418.03;5095999;28;20027;-74
2022/06/06 01:53:24;;;;;;;19.17;14.93;;;;;;;14.14;100.00;100404.66;5091181;28;20100;-75
2022/06/06 01:55:51;;;;;;;23.42;16.02;;;;;;;14.22;100.00;100427.97;5070525;28;20048;-74
2022/06/06 01:58:23;;;;;;;22.23;16.67;;;;;;;13.91;100.00;100381.50;5083865;28;20332;-74
2022/06/06 02:00:48;;;;;;;18.65;16.33;;;;;;;14.05;100.00;100399.97;5088473;28;20394;-74
2022/06/06 02:03:14;;;;;;;22.02;16.58;;;;;;;14.14;100.00;100430.22;5078694;28;20021;-74
2022/06/06 02:05:39;;;;;;;18.67;16.75;;;;;;;14.10;100.00;100413.72;5088953;28;20028;-75
2022/06/06 02:08:06;;;;;;;22.77;16.92;;;;;;;14.11;100.00;100423.34;5092589;28;20035;-76
2022/06/06 02:10:32;;;;;;;20.30;15.75;;;;;;;14.03;100.00;100415.06;5089016;28;20036;-74
2022/06/06 02:12:57;;;;;;;17.83;15.55;;;;;;;13.91;100.00;100392.09;5089531;28;20178;-75
2022/06/06 02:15:24;;;;;;;16.67;13.73;;;;;;;14.18;100.00;100435.22;5083265;28;20074;-75
2022/06/06 02:17:51;;;;;;;19.85;14.88;;;;;;;14.16;100.00;100429.19;5073373;28;20031;-73
2022/06/06 02:20:19;;;;;;;21.05;15.70;;;;;;;14.09;100.00;100412.00;5068008;28;20066;-75
2022/06/06 02:22:44;;;;;;;20.92;15.85;;;;;;;13.93;100.00;100382.25;5076043;28;20095;-73
2022/06/06 02:25:11;;;;;;;20.80;15.93;;;;;;;14.11;100.00;100412.78;5080566;28;20143;-75
2022/06/06 02:27:37;;;;;;;19.85;16.00;;;;;;;14.06;100.00;100408.75;5067083;28;20070;-74
2022/06/06 02:30:05;;;;;;;18.05;16.17;;;;;;;14.01;100.00;100403.75;5092392;28;20032;-74
2022/06/06 02:32:32;;;;;;;19.23;15.82;;;;;;;13.90;100.00;100393.03;5091335;28;20110;-74
2022/06/06 02:34:58;;;;;;;25.52;18.23;;;;;;;14.03;100.00;100417.69;5091764;28;20062;-76
2022/06/06 02:37:23;;;;;;;23.88;17.23;;;;;;;13.90;100.00;100393.03;5091231;28;20024;-73
2022/06/06 02:39:49;;;;;;;22.70;17.17;;;;;;;13.86;100.00;100394.16;5090164;28;20035;-73
2022/06/06 02:42:14;;;;;;;21.13;16.73;;;;;;;13.93;100.00;100400.75;5091479;28;20021;-74
2022/06/06 02:44:39;;;;;;;19.55;16.80;;;;;;;13.83;100.00;100394.34;5090434;28;20024;-73
2022/06/06 02:47:05;;;;;;;17.70;14.70;;;;;;;13.75;100.00;100375.53;5082768;28;20460;-77
2022/06/06 02:49:33;;;;;;;22.83;17.63;;;;;;;13.93;100.00;100415.75;5085790;28;20032;-74
2022/06/06 02:52:00;;;;;;;19.20;16.40;;;;;;;13.89;100.00;100408.97;5090255;28;20485;-73
2022/06/06 02:54:25;;;;;;;18.85;16.85;;;;;;;13.76;100.00;100393.03;5074218;28;20032;-74
2022/06/06 02:56:51;;;;;;;18.70;16.80;;;;;;;13.73;100.00;100387.97;5088561;28;20027;-73
2022/06/06 02:59:17;;;;;;;20.88;16.88;;;;;;;13.72;100.00;100396.84;5072741;28;20387;-74
2022/06/06 03:01:43;;;;;;;23.08;18.13;;;;;;;13.54;100.00;100376.88;5085963;28;20386;-72
2022/06/06 03:04:09;;;;;;;21.00;17.27;;;;;;;13.53;100.00;100385.72;5081333;28;20040;-77
2022/06/06 03:06:51;;;;;;;19.50;16.95;;;;;;;13.52;100.00;100394.59;5091434;28;20036;-73
2022/06/06 03:09:26;;;;;;;26.38;17.55;;;;;;;13.54;100.00;100398.00;5077199;28;20068;-75
2022/06/06 03:12:03;;;;;;;;;;;;;;;13.54;100.00;100405.91;5088005;28;20085;-74
2022/06/06 03:15:03;;;;;;;21.75;17.83;;;;;;;13.51;100.00;100398.19;5076534;28;19908;-73
2022/06/06 03:21:24;;;;;;;22.40;19.35;;;;;;;13.45;100.00;100409.94;5095399;28;20039;-74
2022/06/06 03:24:15;;;;;;;24.08;19.25;;;;;;;13.26;100.00;100394.41;5079594;28;20036;-73
2022/06/06 03:27:05;;;;;;;21.20;18.58;;;;;;;13.46;100.00;100416.09;5079446;28;20030;-73
2022/06/06 03:29:33;;;;;;;25.17;19.17;;;;;;;13.46;100.00;100416.94;5080449;28;20033;-75
2022/06/06 03:32:09;;;;;;;27.60;18.48;;;;;;;13.42;100.00;100414.59;5080819;28;20086;-74
2022/06/06 03:34:44;;;;;;;27.08;18.85;;;;;;;13.41;100.00;100411.09;5094251;28;20032;-74
2022/06/06 03:37:31;;;;;;;;;;;;;;;13.41;100.00;100423.44;5094814;28;20454;-74
2022/06/06 03:40:05;;;;;;;23.10;18.70;;;;;;;13.40;100.00;100421.75;5077451;28;19911;-74
2022/06/06 03:42:46;;;;;;;22.58;16.60;;;;;;;13.32;100.00;100415.13;5084372;28;20020;-75
2022/06/06 03:45:23;;;;;;;20.73;16.88;;;;;;;13.36;100.00;100425.50;5095562;28;20040;-74
2022/06/06 03:48:07;;;;;;;22.00;17.83;;;;;;;13.38;100.00;100426.28;5086920;28;20032;-74
2022/06/06 03:50:46;;;;;;;22.52;17.75;;;;;;;13.30;100.00;100411.75;5075883;28;20030;-74
2022/06/06 03:53:16;;;;;;;25.23;18.63;;;;;;;13.33;100.00;100416.00;5093688;27;20502;-75
2022/06/06 03:56:08;;;;;;;20.67;16.63;;;;;;;13.22;100.00;100406.09;5080790;28;20028;-73
2022/06/06 03:58:34;;;;;;;24.58;16.00;;;;;;;13.13;100.00;100401.38;5090200;28;20223;-73
2022/06/06 04:01:03;;;;;;;19.30;14.98;;;;;;;13.13;100.00;100405.81;5084735;28;20165;-75
2022/06/06 04:03:29;;;;;;;21.33;15.02;;;;;;;13.05;100.00;100418.56;5079519;28;20028;-75
2022/06/06 04:05:54;;;;;;;16.35;13.45;;;;;;;13.03;100.00;100429.22;5085597;28;20024;-74
2022/06/06 04:08:20;;;;;;;22.23;14.05;;;;;;;12.94;100.00;100421.88;5082167;28;20077;-74
2022/06/06 04:11:04;;;;;;;18.10;13.52;;;;;;;12.99;100.00;100447.94;5080264;28;20459;-73
2022/06/06 04:13:44;;;;;;;14.73;11.85;;;;;;;12.95;100.00;100439.38;5094598;28;20054;-73
2022/06/06 04:16:16;;;;;;;14.77;12.15;;;;;;;12.93;100.00;100437.78;5087995;28;20028;-74
2022/06/06 04:18:54;;;;;;;15.55;11.98;;;;;;;12.90;100.00;100430.03;5087652;28;20028;-75
2022/06/06 04:21:26;;;;;;;17.25;10.70;;;;;;;12.81;100.00;100434.06;5093677;28;20032;-74
2022/06/06 04:24:14;;;;;;;15.10;11.13;;;;;;;12.89;100.00;100442.38;5080359;28;20033;-75
2022/06/06 04:27:14;;;;;;;18.30;11.13;;;;;;;12.81;100.00;100434.06;5077110;28;20135;-74
2022/06/06 04:30:01;;;;;;;23.42;10.85;;;;;;;12.92;100.00;100444.81;5079926;28;20029;-74
2022/06/06 04:32:51;;;;;;;16.45;9.45;;;;;;;12.96;100.00;100448.13;5092765;28;20047;-75
2022/06/06 04:35:32;;;;;;;16.67;11.40;;;;;;;13.00;100.00;100444.38;5080327;28;20180;-73
2022/06/06 04:38:10;;;;;;;13.93;10.18;;;;;;;12.91;100.00;100432.56;5092657;28;20070;-74
2022/06/06 04:40:50;;;;;;;13.93;10.85;;;;;;;13.04;100.00;100452.03;5092738;28;20032;-74
2022/06/06 04:43:48;;;;;;;15.32;10.45;;;;;;;13.01;100.00;100436.38;5081887;28;20064;-74
2022/06/06 04:46:37;;;;;;;12.95;10.85;;;;;;;13.07;100.00;100445.72;5082342;28;20502;-76
2022/06/06 04:49:03;;;;;;;13.80;10.68;;;;;;;13.12;100.00;100454.22;5075657;28;20024;-76
2022/06/06 04:51:28;;;;;;;15.40;10.50;;;;;;;13.03;100.00;100426.59;5092262;28;20762;-75
2022/06/06 04:53:55;;;;;;;11.63;10.05;;;;;;;13.10;100.00;100446.41;5093385;28;20531;-75
2022/06/06 04:56:21;;;;;;;14.30;10.52;;;;;;;13.07;100.00;100453.63;5091454;28;20032;-74
2022/06/06 04:58:49;;;;;;;13.25;9.70;;;;;;;12.87;100.00;100417.91;5079842;28;20028;-76
2022/06/06 05:01:15;;;;;;;10.70;9.35;;;;;;;12.60;100.00;100382.59;5105863;28;20108;-74
2022/06/06 05:03:40;;;;;;;13.18;9.95;;;;;;;12.76;100.00;100407.13;5092629;28;20725;-74
2022/06/06 05:06:09;;;;;;;10.55;9.45;;;;;;;12.99;100.00;100453.22;5094212;28;20030;-73
2022/06/06 05:08:53;;;;;;;13.48;10.02;;;;;;;12.99;100.00;100459.34;5093750;28;20036;-74
2022/06/06 05:11:33;;;;;;;12.55;8.35;;;;;;;12.99;100.00;100467.28;5090605;28;20070;-76
2022/06/06 05:14:11;;;;;;;17.10;8.98;;;;;;;13.00;100.00;100455.78;5085993;28;20580;-74
2022/06/06 05:16:52;;;;;;;12.18;7.85;;;;;;;12.95;100.00;100452.56;5092897;28;20489;-73
2022/06/06 05:19:32;;;;;;;11.85;8.50;;;;;;;12.99;100.00;100459.34;5093870;28;20071;-74
2022/06/06 05:22:27;;;;;;;14.70;8.02;;;;;;;13.01;100.00;100462.75;5080112;28;20042;-74
2022/06/06 05:25:01;;;;;;;10.55;7.43;;;;;;;12.98;100.00;100449.72;5083348;28;20039;-75
2022/06/06 05:27:26;;;;;;;;;;;;;;;13.05;100.00;100469.53;5084827;28;20031;-74
2022/06/06 05:30:13;;;;;;;10.10;6.50;;;;;;;12.98;100.00;100446.28;5076067;28;19912;-74
2022/06/06 05:32:57;;;;;;;9.73;6.32;;;;;;;13.11;100.00;100453.38;5092505;27;20297;-75
2022/06/06 05:35:56;;;;;;;11.48;6.55;;;;;;;13.14;100.00;100458.50;5078576;28;20027;-74
2022/06/06 05:39:04;;;;;;;7.28;5.43;;;;;;;13.13;100.00;100455.94;5085808;28;20048;-74
2022/06/06 05:42:11;;;;;;;6.30;4.50;;;;;;;13.17;100.00;100468.84;5086455;28;20054;-75
2022/06/06 05:44:52;;;;;;;5.88;4.32;;;;;;;13.21;100.00;100465.06;5084273;28;20032;-75
2022/06/06 05:47:17;;;;;;;6.93;4.78;;;;;;;13.25;100.00;100461.31;5073262;28;20047;-74
2022/06/06 05:50:12;;;;;;;9.23;4.30;;;;;;;13.28;100.00;100471.69;5091819;28;20020;-75
2022/06/06 05:53:02;;;;;;;9.13;4.53;;;;;;;13.32;100.00;100473.19;5092184;28;20028;-75
2022/06/06 05:56:24;;;;;;;5.97;3.35;;;;;;;13.39;100.00;100472.81;5078193;28;20082;-76
2022/06/06 05:59:03;;;;;;;7.10;3.58;;;;;;;13.31;100.00;100455.66;5070241;28;20135;-76
2022/06/06 06:01:48;;;;;;;6.28;3.65;;;;;;;13.36;100.00;100458.03;5039998;28;20076;-75
2022/06/06 06:04:36;;;;;;;5.20;3.13;;;;;;;13.47;100.00;100471.44;5041638;28;20047;-76
2022/06/06 06:07:04;;;;;;;6.03;3.15;;;;;;;13.55;100.00;100473.63;5042438;28;20737;-74
2022/06/06 06:09:36;;;;;;;5.95;2.80;;;;;;;13.57;100.00;100472.56;5055378;28;20043;-75
2022/06/06 06:12:22;;;;;;;3.63;2.40;;;;;;;13.61;100.00;100478.50;5047902;28;20124;-75
2022/06/06 06:15:02;;;;;;;5.28;2.60;;;;;;;13.64;100.00;100473.03;5038176;28;20040;-76
2022/06/06 06:17:31;;;;;;;3.50;2.47;;;;;;;13.57;100.00;100451.44;5044671;28;20031;-76
2022/06/06 06:20:06;;;;;;;8.27;2.58;;;;;;;13.75;100.00;100478.53;5058425;27;20028;-76
2022/06/06 06:22:56;;;;;;;3.67;2.53;;;;;;;13.76;100.00;100477.56;5045433;28;20436;-76
2022/06/06 06:25:23;;;;;;;4.47;2.28;;;;;;;13.85;100.00;100490.22;5038502;28;20134;-76
2022/06/06 06:27:51;;;;;;;4.15;1.90;;;;;;;13.92;100.00;100488.88;5044694;28;20793;-75
2022/06/06 06:30:17;;;;;;;10.70;2.25;;;;;;;13.84;100.00;100470.00;5047642;28;20894;-76
2022/06/06 06:33:20;;;;;;;5.78;2.25;;;;;;;14.13;100.00;100491.94;5049419;28;20027;-77
2022/06/06 06:36:00;;;;;;;3.75;1.92;;;;;;;14.24;100.00;100490.34;5047932;28;20058;-76
2022/06/06 06:38:54;;;;;;;4.13;2.45;;;;;;;14.26;100.00;100462.00;5053070;28;20038;-76
2022/06/06 06:41:25;;;;;;;5.28;1.58;;;;;;;14.59;100.00;100479.31;5066802;28;20044;-75
2022/06/06 06:44:11;;;;;;;3.63;1.90;;;;;;;14.66;100.00;100464.75;5051878;28;20032;-74
2022/06/06 06:46:42;;;;;;;4.80;1.65;;;;;;;14.80;100.00;100480.56;5041572;28;20428;-75
2022/06/06 06:49:20;;;;;;;4.32;1.63;;;;;;;14.82;100.00;100486.59;5049211;28;20039;-75
2022/06/06 06:52:00;;;;;;;3.55;1.50;;;;;;;14.80;100.00;100484.03;5049126;28;20902;-74
2022/06/06 06:55:15;;;;;;;2.40;1.10;;;;;;;14.99;100.00;100494.25;5060720;28;20089;-75
2022/06/06 06:57:46;;;;;;;8.35;1.33;;;;;;;15.11;100.00;100493.41;5046211;28;20453;-75
2022/06/06 07:00:16;;;;;;;5.32;1.38;;;;;;;15.20;100.00;100484.88;5048466;28;20040;-76
2022/06/06 07:08:34;;;;;;;3.05;1.30;;;;;;;15.33;100.00;100501.63;5051233;28;20828;-75
2022/06/06 07:11:29;;;;;;;2.20;1.05;;;;;;;15.26;100.00;100502.13;5048453;28;20174;-75
2022/06/06 07:14:13;;;;;;;;;;;;;;;14.96;100.00;100468.00;5047793;28;20117;-76
2022/06/06 07:16:40;;;;;;;8.18;1.10;;;;;;;15.02;100.00;100499.34;5054217;28;20006;-77
2022/06/06 07:19:12;;;;;;;3.63;1.20;;;;;;;14.63;100.00;100459.66;5051238;28;20039;-75
2022/06/06 07:21:39;;;;;;;2.40;0.95;;;;;;;14.82;100.00;100502.44;5051375;28;20123;-72
2022/06/06 07:24:07;;;;;;;1.92;0.80;;;;;;;14.64;100.00;100495.72;5031781;28;20028;-75
2022/06/06 07:26:37;;;;;;;2.95;1.25;;;;;;;14.65;100.00;100505.34;5049855;28;20862;-75
2022/06/06 07:29:05;;;;;;;3.92;1.20;;;;;;;14.66;100.00;100502.63;5047237;28;20020;-74
2022/06/06 07:31:42;;;;;;;2.40;1.33;;;;;;;14.81;100.00;100501.59;5044592;28;20032;-75
2022/06/06 07:34:50;;;;;;;3.65;1.52;;;;;;;15.01;100.00;100516.16;5048647;28;20024;-75
2022/06/06 07:37:33;;;;;;;3.67;1.38;;;;;;;15.07;100.00;100509.63;5016431;28;20897;-75
2022/06/06 07:40:29;;;;;;;2.15;1.15;;;;;;;15.12;100.00;100502.22;5049275;28;20024;-74
2022/06/06 07:43:10;;;;;;;4.65;1.55;;;;;;;15.19;100.00;100507.00;5040510;28;20131;-74
2022/06/06 07:45:41;;;;;;;2.22;1.13;;;;;;;15.16;100.00;100495.75;5052666;28;20900;-74
2022/06/06 07:48:26;;;;;;;6.82;1.73;;;;;;;15.21;100.00;100513.03;5049351;28;20150;-75
2022/06/06 07:50:53;;;;;;;3.20;1.55;;;;;;;15.24;100.00;100518.09;5046367;28;20899;-75
2022/06/06 07:53:34;;;;;;;5.10;1.27;;;;;;;15.29;100.00;100501.91;5047834;28;20024;-77
2022/06/06 07:56:11;;;;;;;3.15;1.42;;;;;;;15.45;100.00;100512.31;5047782;28;20032;-75
2022/06/06 07:58:41;;;;;;;4.72;1.33;;;;;;;15.54;100.00;100506.44;5047726;28;20052;-75
2022/06/06 08:01:40;;;;;;;2.72;1.35;;;;;;;15.55;100.00;100495.72;5046909;28;20024;-74
2022/06/06 08:04:35;;;;;;;2.65;1.40;;;;;;;15.62;100.00;100494.34;5047107;28;20040;-77
2022/06/06 08:07:04;;;;;;;4.43;1.90;;;;;;;15.65;100.00;100495.91;5038049;28;20042;-75
2022/06/06 08:09:48;;;;;;;2.63;0.98;;;;;;;15.71;100.00;100498.16;5036073;28;20028;-75
2022/06/06 08:12:25;;;;;;;3.28;1.50;;;;;;;15.89;100.00;100493.34;5059427;28;20028;-75
2022/06/06 08:15:09;;;;;;;2.45;1.10;;;;;;;15.96;100.00;100492.81;5050639;28;20181;-76
2022/06/06 08:17:45;;;;;;;3.10;1.27;;;;;;;16.02;100.00;100486.25;5049725;28;20024;-75
2022/06/06 08:20:16;;;;;;;3.83;1.38;;;;;;;16.09;100.00;100498.09;5045046;28;20278;-76
2022/06/06 08:22:44;;;;;;;6.57;1.85;;;;;;;15.96;100.00;100457.50;5040256;28;20150;-76
2022/06/06 08:25:13;;;;;;;4.22;2.00;;;;;;;16.17;100.00;100501.91;5045779;28;20044;-75
2022/06/06 08:27:43;;;;;;;2.92;1.20;;;;;;;15.96;100.00;100444.25;5046382;28;20456;-74
2022/06/06 08:30:09;;;;;;;3.58;1.48;;;;;;;16.32;100.00;100484.06;5049061;28;20067;-77
2022/06/06 08:32:35;;;;;;;3.58;1.33;;;;;;;16.35;100.00;100475.88;5048984;28;20032;-76
2022/06/06 08:35:00;;;;;;;2.65;1.48;;;;;;;16.61;100.00;100492.56;5048066;28;20210;-75
2022/06/06 08:37:47;;;;;;;4.25;2.10;;;;;;;16.56;100.00;100495.53;5046266;28;20064;-75
2022/06/06 08:40:31;;;;;;;3.65;1.85;;;;;;;16.51;100.00;100491.50;5040857;28;20021;-75
2022/06/06 08:43:03;;;;;;;3.33;1.57;;;;;;;16.39;100.00;100490.59;5046161;28;20788;-76
2022/06/06 08:45:50;;;;;;;2.83;1.55;;;;;;;16.43;100.00;100486.75;5048131;28;20894;-75
2022/06/06 08:48:41;;;;;;;3.60;1.50;;;;;;;16.48;100.00;100481.13;5045012;28;20032;-75
2022/06/06 08:51:37;;;;;;;4.05;1.58;;;;;;;16.09;100.00;100406.16;5046984;28;20166;-74
2022/06/06 08:54:24;;;;;;;2.65;1.20;;;;;;;16.73;100.00;100478.38;5043620;28;20256;-76
2022/06/06 08:57:07;;;;;;;2.28;1.17;;;;;;;16.81;100.00;100473.34;5048361;28;20043;-75
2022/06/06 08:59:45;;;;;;;3.55;1.63;;;;;;;16.98;100.00;100480.88;5047571;28;20105;-75
2022/06/06 09:02:35;;;;;;;4.45;2.08;;;;;;;16.96;100.00;100474.00;5035467;28;20024;-75
2022/06/06 09:05:35;;;;;;;4.60;1.92;;;;;;;16.78;100.00;100477.09;5046714;28;20024;-75
2022/06/06 09:08:38;;;;;;;2.47;1.13;;;;;;;16.56;100.00;100481.44;5046201;28;20016;-75
2022/06/06 09:11:31;;;;;;;3.05;1.42;;;;;;;16.55;100.00;100482.38;5047908;28;20031;-74
2022/06/06 09:14:14;;;;;;;2.45;0.98;;;;;;;16.48;100.00;100476.66;5054440;28;20025;-77
2022/06/06 09:16:58;;;;;;;2.35;1.20;;;;;;;16.60;100.00;100477.59;5047888;28;20028;-77
2022/06/06 09:20:04;;;;;;;3.90;1.05;;;;;;;16.83;100.00;100474.91;5041318;28;20027;-74
2022/06/06 09:22:54;;;;;;;3.55;1.20;;;;;;;16.96;100.00;100463.41;5042268;28;20025;-77
2022/06/06 09:25:42;;;;;;;11.23;1.92;;;;;;;16.97;100.00;100471.22;5046005;28;20918;-76
2022/06/06 09:28:11;;;;;;;2.95;1.20;;;;;;;16.39;100.00;100468.53;5029280;28;20045;-74
2022/06/06 09:31:11;;;;;;;3.70;0.95;;;;;;;15.83;100.00;100476.09;5046790;28;20041;-74
2022/06/06 09:34:07;;;;;;;3.50;1.50;;;;;;;15.39;100.00;100475.66;5054435;27;20032;-74
2022/06/06 09:36:53;;;;;;;3.15;1.50;;;;;;;15.10;100.00;100475.84;5037524;28;20036;-75
2022/06/06 09:39:31;;;;;;;3.17;1.73;;;;;;;15.03;100.00;100469.28;5036249;28;20024;-75
2022/06/06 09:42:21;;;;;;;6.20;1.60;;;;;;;15.14;100.00;100472.03;5046020;28;20028;-74
2022/06/06 09:45:17;;;;;;;5.93;1.48;;;;;;;15.24;100.00;100466.97;5046375;28;20130;-75
2022/06/06 09:47:50;;;;;;;3.67;1.40;;;;;;;15.21;100.00;100468.00;5039918;28;20028;-76
2022/06/06 09:50:53;;;;;;;2.90;1.40;;;;;;;15.12;100.00;100470.44;5058046;27;20032;-75
2022/06/06 09:59:43;;;;;;;7.32;1.75;;;;;;;15.70;100.00;100456.72;5036790;28;20038;-76
2022/06/06 10:02:33;;;;;;;3.70;1.58;;;;;;;15.72;100.00;100457.44;5047529;28;20040;-74
2022/06/06 10:05:24;;;;;;;2.90;1.70;;;;;;;15.80;100.00;100449.81;5046770;28;20227;-75
2022/06/06 10:08:14;;;;;;;3.17;1.70;;;;;;;16.07;100.00;100450.50;5041482;28;20025;-76
2022/06/06 10:10:48;;;;;;;2.60;1.50;;;;;;;16.41;100.00;100453.34;5050008;28;20036;-76
2022/06/06 10:13:26;;;;;;;3.30;1.70;;;;;;;16.76;100.00;100441.81;5042751;28;20085;-76
2022/06/06 10:15:58;;;;;;;4.97;1.85;;;;;;;17.04;100.00;100445.06;5059687;28;20040;-75
2022/06/06 10:18:42;;;;;;;4.25;1.35;;;;;;;17.29;100.00;100440.41;5042137;28;20020;-76
2022/06/06 10:21:28;;;;;;;3.15;1.77;;;;;;;17.53;100.00;100431.50;5044628;28;20083;-74
2022/06/06 10:24:20;;;;;;;3.25;1.10;;;;;;;17.72;100.00;100429.09;5044199;28;20028;-74
2022/06/06 10:27:27;;;;;;;3.65;1.20;;;;;;;17.91;100.00;100424.03;5034737;28;20036;-77
2022/06/06 10:30:11;;;;;;;5.20;1.20;;;;;;;18.13;100.00;100437.28;5029126;28;20539;-75
2022/06/06 10:33:02;;;;;;;3.20;1.20;;;;;;;18.29;100.00;100437.72;5041074;28;20739;-75
2022/06/06 10:35:42;;;;;;;3.08;1.30;;;;;;;18.31;100.00;100440.28;5045464;28;20135;-73
2022/06/06 10:38:29;;;;;;;4.07;1.08;;;;;;;18.32;100.00;100426.84;5044614;28;20030;-79
2022/06/06 10:41:05;;;;;;;4.20;1.50;;;;;;;18.51;100.00;100426.22;5046018;28;20938;-75
2022/06/06 10:43:39;;;;;;;4.65;1.20;;;;;;;18.79;100.00;100438.91;5024501;28;20055;-74
2022/06/06 10:46:13;;;;;;;2.60;0.80;;;;;;;19.06;100.00;100448.22;5038450;28;20923;-76
2022/06/06 10:48:57;;;;;;;3.63;1.10;;;;;;;19.22;100.00;100427.28;5036079;28;20028;-79
2022/06/06 10:51:51;;;;;;;2.97;1.00;;;;;;;19.28;100.00;100446.25;5043836;28;20028;-78
2022/06/06 10:54:28;;;;;;;4.80;1.13;;;;;;;19.18;100.00;100434.69;5043231;28;20062;-73
2022/06/06 10:57:09;;;;;;;3.65;1.23;;;;;;;18.92;100.00;100424.56;5042814;28;20032;-78
2022/06/06 10:59:53;;;;;;;4.60;1.50;;;;;;;18.58;100.00;100438.03;5037571;28;20165;-77
2022/06/06 11:02:56;;;;;;;5.53;1.15;;;;;;;18.11;100.00;100444.56;5045540;28;20052;-77
2022/06/06 11:05:26;;;;;;;2.83;0.93;;;;;;;17.85;100.00;100443.13;5036847;28;20044;-77
2022/06/06 11:07:55;;;;;;;3.95;1.25;;;;;;;17.70;100.00;100439.03;5044957;28;20028;-78
2022/06/06 11:10:26;;;;;;;5.57;1.25;;;;;;;17.66;100.00;100442.88;5044740;28;20028;-75
2022/06/06 11:13:05;;;;;;;2.05;0.80;;;;;;;17.90;100.00;100424.16;5042331;28;20031;-73
2022/06/06 11:15:37;;;;;;;3.85;1.23;;;;;;;18.45;100.00;100409.88;5039432;28;20046;-76
2022/06/06 11:18:38;;;;;;;4.22;1.30;;;;;;;19.04;100.00;100416.38;5044966;28;20042;-79
2022/06/06 11:21:55;;;;;;;3.20;0.93;;;;;;;19.36;100.00;100422.44;5036074;28;20260;-79
2022/06/06 11:24:33;;;;;;;4.35;0.85;;;;;;;18.92;96.86;100420.09;5023510;28;20032;-77
2022/06/06 11:27:11;;;;;;;2.83;1.10;;;;;;;19.06;100.00;100437.56;5044434;28;20024;-75
2022/06/06 11:30:11;;;;;;;2.42;0.93;;;;;;;19.30;100.00;100427.47;5034723;28;20045;-75
2022/06/06 11:32:46;;;;;;;2.65;1.10;;;;;;;19.21;100.00;100434.44;5047036;28;20406;-76
2022/06/06 11:35:23;;;;;;;;;;;;;;;19.01;100.00;100429.97;5046830;28;20134;-78
2022/06/06 11:38:07;;;;;;;4.32;1.50;;;;;;;19.20;100.00;100419.41;5037019;28;19912;-79
2022/06/06 11:41:00;;;;;;;2.25;1.05;;;;;;;20.00;94.61;100435.53;5050122;28;20060;-76
2022/06/06 11:43:28;;;;;;;4.75;1.10;;;;;;;20.89;88.21;100434.53;5048466;28;20037;-75
2022/06/06 11:46:02;;;;;;;4.40;1.38;;;;;;;21.68;86.63;100432.41;5048062;28;20024;-77
2022/06/06 11:48:56;;;;;;;3.33;1.02;;;;;;;22.63;82.44;100430.16;5055367;28;20028;-77
2022/06/06 11:51:50;;;;;;;2.28;1.08;;;;;;;23.38;80.52;100422.44;5039000;28;20024;-78
2022/06/06 11:54:53;;;;;;;5.03;1.50;;;;;;;24.09;74.84;100427.50;5049135;28;20135;-76
2022/06/06 11:57:36;;;;;;;2.70;0.85;;;;;;;23.24;72.17;100439.09;5045413;28;20041;-75
2022/06/06 12:00:11;;;;;;;2.90;1.13;;;;;;;22.45;72.93;100422.13;5040642;28;20987;-73
2022/06/06 12:02:57;;;;;;;3.03;1.00;;;;;;;22.98;75.18;100424.84;5045774;28;20024;-78
2022/06/06 12:05:34;;;;;;;5.15;1.10;;;;;;;22.55;74.69;100427.41;5055061;28;20044;-77
2022/06/06 12:08:37;;;;;;;2.75;1.00;;;;;;;23.12;73.35;100416.19;5043993;28;20438;-79
2022/06/06 12:11:23;;;;;;;2.30;0.68;;;;;;;23.56;71.58;100418.84;5042283;28;20044;-76
2022/06/06 12:14:11;;;;;;;2.08;0.82;;;;;;;22.72;70.87;100418.56;5048746;28;20032;-74
2022/06/06 12:17:04;;;;;;;8.60;1.08;;;;;;;21.57;72.48;100419.22;5045265;28;20921;-76
2022/06/06 12:19:36;;;;;;;2.47;0.90;;;;;;;20.35;71.78;100433.25;5041989;28;20031;-79
2022/06/06 12:22:27;;;;;;;3.38;0.88;;;;;;;19.37;75.84;100429.47;5047910;28;20154;-73